createdAt,value
2022-07-28T00:00:49.162Z,54.27
2022-07-28T00:01:49.204Z,54.27
2022-07-28T00:02:49.212Z,54.37
2022-07-28T00:03:49.381Z,54.25
2022-07-28T00:04:49.164Z,54.27
2022-07-28T00:05:49.893Z,54.35
2022-07-28T00:06:49.172Z,54.25
2022-07-28T00:07:49.177Z,54.25
2022-07-28T00:08:49.176Z,54.35
2022-07-28T00:09:49.182Z,54.44
2022-07-28T00:10:49.173Z,54.27
2022-07-28T00:11:54.590Z,54.37
2022-07-28T00:12:49.177Z,54.47
2022-07-28T00:13:49.178Z,54.25
2022-07-28T00:14:49.178Z,54.27
2022-07-28T00:15:49.239Z,54.47
2022-07-28T00:16:49.299Z,54.47
2022-07-28T00:17:49.181Z,54.37
2022-07-28T00:18:49.187Z,54.37
2022-07-28T00:19:49.189Z,54.57
2022-07-28T00:20:49.181Z,54.35
2022-07-28T00:21:49.187Z,54.47
2022-07-28T00:22:49.189Z,54.44
2022-07-28T00:23:49.181Z,54.27
2022-07-28T00:24:49.323Z,54.35
2022-07-28T00:25:49.188Z,54.44
2022-07-28T00:26:49.182Z,54.35
2022-07-28T00:27:49.198Z,54.25
2022-07-28T00:28:49.190Z,54.25
2022-07-28T00:29:50.996Z,54.47
2022-07-28T00:30:49.195Z,54.05
2022-07-28T00:31:49.271Z,54.35
2022-07-28T00:32:49.199Z,54.05
2022-07-28T00:33:49.189Z,54.05
2022-07-28T00:34:49.196Z,54.08
2022-07-28T00:35:49.198Z,54.44
2022-07-28T00:36:49.200Z,54.27
2022-07-28T00:37:49.250Z,54.15
2022-07-28T00:38:49.209Z,54.25
2022-07-28T00:39:49.205Z,54.15
2022-07-28T00:40:49.196Z,54.25
2022-07-28T00:41:49.206Z,54.25
2022-07-28T00:42:49.219Z,54.15
2022-07-28T00:43:49.199Z,54.15
2022-07-28T00:44:49.207Z,54.15
2022-07-28T00:45:49.203Z,54.35
2022-07-28T00:46:49.262Z,54.15
2022-07-28T00:47:49.207Z,54.15
2022-07-28T00:48:49.302Z,54.35
2022-07-28T00:49:49.214Z,54.25
2022-07-28T00:50:49.207Z,54.35
2022-07-28T00:51:49.216Z,54.44
2022-07-28T00:52:49.217Z,54.35
2022-07-28T00:53:49.206Z,54.25
2022-07-28T00:54:49.217Z,54.25
2022-07-28T00:56:05.548Z,54.25
2022-07-28T00:56:49.219Z,53.86
2022-07-28T00:57:49.220Z,53.96
2022-07-28T00:58:49.225Z,53.96
2022-07-28T00:59:49.224Z,53.96
2022-07-28T01:00:49.233Z,54.35
2022-07-28T01:01:49.362Z,53.96
2022-07-28T01:02:49.328Z,54.05
2022-07-28T01:03:49.224Z,54.05
2022-07-28T01:04:49.232Z,54.53
2022-07-28T01:05:49.231Z,54.44
2022-07-28T01:06:49.221Z,54.44
2022-07-28T01:07:49.233Z,54.05
2022-07-28T01:08:49.238Z,54.15
2022-07-28T01:09:49.232Z,54.15
2022-07-28T01:10:49.226Z,54.53
2022-07-28T01:11:49.231Z,54.44
2022-07-28T01:12:49.231Z,54.53
2022-07-28T01:13:49.243Z,54.53
2022-07-28T01:14:49.238Z,54.35
2022-07-28T01:15:49.279Z,54.25
2022-07-28T01:16:49.245Z,54.53
2022-07-28T01:17:49.229Z,54.25
2022-07-28T01:18:49.233Z,54.53
2022-07-28T01:19:49.232Z,54.63
2022-07-28T01:20:49.245Z,54.25
2022-07-28T01:21:49.246Z,54.25
2022-07-28T01:22:49.235Z,54.63
2022-07-28T01:23:49.242Z,54.53
2022-07-28T01:24:49.241Z,54.25
2022-07-28T01:25:49.247Z,54.44
2022-07-28T01:26:49.244Z,54.25
2022-07-28T01:27:49.248Z,54.25
2022-07-28T01:28:49.252Z,54.53
2022-07-28T01:29:49.244Z,53.96
2022-07-28T01:30:49.283Z,54.53
2022-07-28T01:31:49.245Z,54.35
2022-07-28T01:32:49.256Z,54.35
2022-07-28T01:33:49.251Z,54.53
2022-07-28T01:34:49.256Z,54.73
2022-07-28T01:35:49.244Z,54.44
2022-07-28T01:36:49.253Z,54.05
2022-07-28T01:37:49.260Z,54.35
2022-07-28T01:38:49.270Z,54.53
2022-07-28T01:39:49.262Z,54.53
2022-07-28T01:40:50.390Z,54.73
2022-07-28T01:41:49.255Z,54.35
2022-07-28T01:42:49.256Z,54.53
2022-07-28T01:43:49.256Z,54.44
2022-07-28T01:44:49.273Z,54.53
2022-07-28T01:45:49.263Z,54.53
2022-07-28T01:46:49.343Z,54.44
2022-07-28T01:47:49.278Z,54.53
2022-07-28T01:48:49.413Z,54.53
2022-07-28T01:49:49.271Z,54.15
2022-07-28T01:50:49.280Z,54.73
2022-07-28T01:51:49.259Z,54.53
2022-07-28T01:52:49.262Z,54.73
2022-07-28T01:53:49.272Z,54.73
2022-07-28T01:55:31.138Z,54.53
2022-07-28T01:56:31.140Z,54.63
2022-07-28T01:57:31.150Z,54.05
2022-07-28T01:58:31.147Z,53.96
2022-07-28T01:59:31.859Z,53.96
2022-07-28T02:00:31.139Z,54.53
2022-07-28T02:01:31.222Z,54.53
2022-07-28T02:02:31.148Z,54.22
2022-07-28T02:03:31.154Z,53.96
2022-07-28T02:04:31.243Z,54.63
2022-07-28T02:05:31.213Z,54.05
2022-07-28T02:06:31.151Z,54.13
2022-07-28T02:07:31.156Z,54.44
2022-07-28T02:08:31.159Z,54.35
2022-07-28T02:09:31.149Z,54.63
2022-07-28T02:10:31.158Z,54.44
2022-07-28T02:11:31.159Z,54.63
2022-07-28T02:12:31.176Z,54.63
2022-07-28T02:13:31.168Z,54.53
2022-07-28T02:14:31.163Z,54.05
2022-07-28T02:15:31.237Z,54.05
2022-07-28T02:16:31.157Z,54.35
2022-07-28T02:17:31.170Z,54.53
2022-07-28T02:18:31.166Z,54.15
2022-07-28T02:19:31.201Z,54.63
2022-07-28T02:20:31.157Z,54.32
2022-07-28T02:21:31.205Z,54.63
2022-07-28T02:22:31.178Z,54.44
2022-07-28T02:23:31.164Z,54.63
2022-07-28T02:24:31.170Z,54.61
2022-07-28T02:25:31.169Z,54.05
2022-07-28T02:26:31.164Z,54.73
2022-07-28T02:27:31.170Z,54.73
2022-07-28T02:28:31.188Z,54.44
2022-07-28T02:29:50.127Z,54.35
2022-07-28T02:30:31.181Z,54.63
2022-07-28T02:31:31.233Z,54.53
2022-07-28T02:32:31.175Z,54.73
2022-07-28T02:33:58.719Z,54.83
2022-07-28T02:34:31.177Z,54.73
2022-07-28T02:35:32.027Z,54.41
2022-07-28T02:36:31.265Z,54.53
2022-07-28T02:37:31.177Z,54.51
2022-07-28T02:38:31.182Z,54.44
2022-07-28T02:39:31.175Z,54.63
2022-07-28T02:40:31.187Z,54.41
2022-07-28T02:41:31.182Z,54.53
2022-07-28T02:42:31.185Z,54.51
2022-07-28T02:43:50.098Z,54.53
2022-07-28T02:44:31.180Z,54.22
2022-07-28T02:45:31.187Z,54.41
2022-07-28T02:46:31.215Z,54.44
2022-07-28T02:47:31.180Z,54.73
2022-07-28T02:48:31.189Z,54.61
2022-07-28T02:49:31.190Z,54.71
2022-07-28T02:50:31.215Z,54.71
2022-07-28T02:51:31.199Z,54.53
2022-07-28T02:52:31.198Z,54.61
2022-07-28T02:53:31.189Z,54.71
2022-07-28T02:54:31.196Z,54.71
2022-07-28T02:55:31.193Z,54.71
2022-07-28T02:56:31.189Z,54.71
2022-07-28T02:57:31.203Z,54.61
2022-07-28T02:58:31.198Z,54.32
2022-07-28T02:59:31.191Z,54.51
2022-07-28T03:00:31.204Z,54.61
2022-07-28T03:01:31.252Z,54.61
2022-07-28T03:02:31.201Z,54.32
2022-07-28T03:03:31.212Z,54.32
2022-07-28T03:04:31.197Z,54.32
2022-07-28T03:05:31.296Z,54.51
2022-07-28T03:06:31.205Z,54.41
2022-07-28T03:07:31.201Z,54.41
2022-07-28T03:08:31.206Z,54.32
2022-07-28T03:09:31.212Z,54.51
2022-07-28T03:10:33.753Z,54.41
2022-07-28T03:11:31.212Z,54.41
2022-07-28T03:12:31.214Z,54.41
2022-07-28T03:13:31.235Z,54.51
2022-07-28T03:14:31.200Z,54.71
2022-07-28T03:15:31.355Z,54.51
2022-07-28T03:16:31.297Z,54.51
2022-07-28T03:17:31.218Z,54.51
2022-07-28T03:18:31.218Z,54.80
2022-07-28T03:19:31.220Z,54.61
2022-07-28T03:20:31.220Z,54.61
2022-07-28T03:21:31.215Z,54.71
2022-07-28T03:22:31.225Z,54.51
2022-07-28T03:23:31.229Z,54.71
2022-07-28T03:24:31.219Z,54.71
2022-07-28T03:25:31.221Z,54.80
2022-07-28T03:26:31.213Z,54.41
2022-07-28T03:27:31.231Z,54.80
2022-07-28T03:28:31.220Z,54.80
2022-07-28T03:29:31.217Z,54.51
2022-07-28T03:30:31.251Z,54.61
2022-07-28T03:31:31.215Z,54.71
2022-07-28T03:32:31.224Z,54.71
2022-07-28T03:33:31.226Z,54.51
2022-07-28T03:34:31.222Z,54.51
2022-07-28T03:35:31.330Z,54.51
2022-07-28T03:36:31.249Z,54.51
2022-07-28T03:37:31.224Z,54.80
2022-07-28T03:38:31.236Z,54.71
2022-07-28T03:39:32.454Z,54.51
2022-07-28T03:40:31.237Z,54.51
2022-07-28T03:41:31.231Z,54.51
2022-07-28T03:42:31.225Z,54.61
2022-07-28T03:43:31.239Z,54.41
2022-07-28T03:44:31.265Z,54.51
2022-07-28T03:45:31.237Z,54.51
2022-07-28T03:46:31.290Z,54.51
2022-07-28T03:47:31.235Z,54.61
2022-07-28T03:48:31.229Z,54.51
2022-07-28T03:49:31.237Z,54.51
2022-07-28T03:50:31.236Z,54.71
2022-07-28T03:51:31.234Z,54.51
2022-07-28T03:52:31.242Z,54.51
2022-07-28T03:53:31.241Z,54.51
2022-07-28T03:54:31.245Z,54.32
2022-07-28T03:55:31.248Z,54.41
2022-07-28T03:56:31.249Z,54.41
2022-07-28T03:57:31.238Z,54.41
2022-07-28T03:58:31.251Z,54.51
2022-07-28T03:59:31.244Z,54.51
2022-07-28T04:00:31.257Z,54.41
2022-07-28T04:01:31.338Z,54.51
2022-07-28T04:02:31.271Z,54.51
2022-07-28T04:03:43.019Z,54.41
2022-07-28T04:04:31.256Z,54.61
2022-07-28T04:05:31.254Z,54.61
2022-07-28T04:06:31.247Z,54.51
2022-07-28T04:07:31.254Z,54.51
2022-07-28T04:08:31.253Z,54.51
2022-07-28T04:09:31.260Z,54.61
2022-07-28T04:10:31.258Z,54.71
2022-07-28T04:11:31.255Z,54.61
2022-07-28T04:12:31.269Z,54.61
2022-07-28T04:13:31.257Z,54.41
2022-07-28T04:14:31.266Z,54.61
2022-07-28T04:15:31.256Z,54.41
2022-07-28T04:16:31.329Z,54.41
2022-07-28T04:17:31.256Z,54.61
2022-07-28T04:18:31.267Z,54.51
2022-07-28T04:19:31.256Z,54.41
2022-07-28T04:20:31.261Z,54.41
2022-07-28T04:21:31.262Z,54.41
2022-07-28T04:22:31.265Z,54.51
2022-07-28T04:23:31.263Z,54.41
2022-07-28T04:24:31.274Z,54.61
2022-07-28T04:25:31.267Z,54.51
2022-07-28T04:26:31.269Z,54.61
2022-07-28T04:27:31.273Z,54.41
2022-07-28T04:28:31.262Z,54.61
2022-07-28T04:29:31.272Z,54.51
2022-07-28T04:30:31.319Z,54.41
2022-07-28T04:31:31.487Z,54.61
2022-07-28T04:32:31.272Z,54.51
2022-07-28T04:33:31.275Z,54.71
2022-07-28T04:34:31.283Z,54.51
2022-07-28T04:35:31.287Z,54.80
2022-07-28T04:36:31.298Z,54.80
2022-07-28T04:37:32.344Z,54.41
2022-07-28T04:38:31.275Z,54.71
2022-07-28T04:39:31.277Z,54.71
2022-07-28T04:40:31.282Z,54.90
2022-07-28T04:41:31.285Z,54.71
2022-07-28T04:42:31.276Z,54.71
2022-07-28T04:43:31.276Z,54.71
2022-07-28T04:44:31.305Z,54.61
2022-07-28T04:45:31.341Z,54.71
2022-07-28T04:46:31.329Z,54.61
2022-07-28T04:47:31.278Z,54.80
2022-07-28T04:48:31.280Z,54.71
2022-07-28T04:49:31.284Z,54.71
2022-07-28T04:50:31.291Z,54.61
2022-07-28T04:51:31.289Z,54.71
2022-07-28T04:52:31.293Z,54.80
2022-07-28T04:53:31.282Z,54.80
2022-07-28T04:54:31.295Z,54.71
2022-07-28T04:55:31.291Z,54.90
2022-07-28T04:56:31.295Z,54.80
2022-07-28T04:57:31.292Z,54.71
2022-07-28T04:58:31.306Z,54.71
2022-07-28T04:59:31.297Z,54.61
2022-07-28T05:00:31.298Z,54.71
2022-07-28T05:01:31.348Z,54.51
2022-07-28T05:02:31.308Z,54.41
2022-07-28T05:03:36.037Z,54.51
2022-07-28T05:04:31.358Z,54.41
2022-07-28T05:05:31.294Z,54.41
2022-07-28T05:06:31.296Z,54.41
2022-07-28T05:07:31.296Z,54.61
2022-07-28T05:08:31.308Z,54.51
2022-07-28T05:09:31.307Z,54.61
2022-07-28T05:10:31.310Z,54.41
2022-07-28T05:11:31.302Z,54.32
2022-07-28T05:12:31.305Z,54.41
2022-07-28T05:13:33.988Z,54.41
2022-07-28T05:14:31.299Z,54.51
2022-07-28T05:15:31.317Z,54.61
2022-07-28T05:16:31.361Z,54.51
2022-07-28T05:17:31.305Z,54.51
2022-07-28T05:18:31.313Z,54.51
2022-07-28T05:19:31.318Z,54.51
2022-07-28T05:20:31.321Z,54.51
2022-07-28T05:21:31.306Z,54.71
2022-07-28T05:22:31.315Z,54.71
2022-07-28T05:23:31.308Z,54.51
2022-07-28T05:24:31.323Z,54.71
2022-07-28T05:25:31.319Z,54.41
2022-07-28T05:26:31.334Z,54.80
2022-07-28T05:27:31.315Z,54.61
2022-07-28T05:28:31.327Z,54.80
2022-07-28T05:29:42.484Z,54.71
2022-07-28T05:30:31.315Z,54.80
2022-07-28T05:31:31.375Z,54.51
2022-07-28T05:32:31.328Z,54.61
2022-07-28T05:33:31.985Z,54.41
2022-07-28T05:34:31.331Z,54.71
2022-07-28T05:35:31.317Z,54.61
2022-07-28T05:36:31.334Z,54.80
2022-07-28T05:37:31.329Z,54.61
2022-07-28T05:38:31.336Z,54.51
2022-07-28T05:39:31.329Z,54.61
2022-07-28T05:40:31.325Z,54.51
2022-07-28T05:41:31.328Z,54.51
2022-07-28T05:42:31.330Z,54.51
2022-07-28T05:43:31.341Z,54.51
2022-07-28T05:44:37.232Z,54.41
2022-07-28T05:45:31.385Z,54.51
2022-07-28T05:46:31.335Z,54.51
2022-07-28T05:47:31.337Z,54.61
2022-07-28T05:48:31.350Z,54.51
2022-07-28T05:49:31.345Z,54.41
2022-07-28T05:50:31.342Z,54.51
2022-07-28T05:51:31.344Z,54.51
2022-07-28T05:52:31.360Z,54.51
2022-07-28T05:53:31.336Z,54.51
2022-07-28T05:54:31.345Z,54.44
2022-07-28T05:55:31.341Z,54.41
2022-07-28T05:56:31.338Z,54.41
2022-07-28T05:57:31.354Z,54.51
2022-07-28T05:58:31.353Z,54.51
2022-07-28T05:59:31.350Z,54.35
2022-07-28T06:00:31.359Z,54.63
2022-07-28T06:01:31.402Z,54.73
2022-07-28T06:02:31.428Z,54.61
2022-07-28T06:03:31.344Z,54.73
2022-07-28T06:04:34.525Z,54.51
2022-07-28T06:05:31.347Z,54.53
2022-07-28T06:07:13.231Z,54.63
2022-07-28T06:08:13.228Z,54.15
2022-07-28T06:09:13.222Z,54.44
2022-07-28T06:10:13.232Z,54.53
2022-07-28T06:11:22.300Z,54.63
2022-07-28T06:12:13.229Z,54.63
2022-07-28T06:13:13.232Z,54.25
2022-07-28T06:14:13.440Z,54.25
2022-07-28T06:15:13.239Z,54.44
2022-07-28T06:16:13.519Z,53.86
2022-07-28T06:17:13.243Z,54.25
2022-07-28T06:18:13.234Z,54.25
2022-07-28T06:19:13.244Z,54.25
2022-07-28T06:20:13.242Z,54.05
2022-07-28T06:21:13.236Z,54.05
2022-07-28T06:22:13.253Z,54.35
2022-07-28T06:23:13.244Z,54.15
2022-07-28T06:24:13.555Z,54.44
2022-07-28T06:25:13.249Z,54.35
2022-07-28T06:26:13.271Z,54.44
2022-07-28T06:27:13.248Z,54.44
2022-07-28T06:28:13.244Z,54.73
2022-07-28T06:29:13.256Z,54.35
2022-07-28T06:30:13.242Z,54.53
2022-07-28T06:31:13.352Z,54.44
2022-07-28T06:32:13.259Z,54.05
2022-07-28T06:33:17.165Z,54.15
2022-07-28T06:34:13.553Z,53.96
2022-07-28T06:35:13.268Z,53.96
2022-07-28T06:36:13.262Z,54.15
2022-07-28T06:37:13.261Z,54.15
2022-07-28T06:38:13.254Z,53.96
2022-07-28T06:39:13.262Z,53.96
2022-07-28T06:40:13.274Z,53.96
2022-07-28T06:41:13.259Z,53.96
2022-07-28T06:42:13.264Z,54.15
2022-07-28T06:43:13.270Z,54.15
2022-07-28T06:44:13.718Z,54.15
2022-07-28T06:45:19.648Z,54.05
2022-07-28T06:46:13.271Z,54.25
2022-07-28T06:47:13.308Z,53.99
2022-07-28T06:48:13.273Z,54.25
2022-07-28T06:49:13.717Z,54.35
2022-07-28T06:50:24.576Z,54.27
2022-07-28T06:51:13.273Z,54.25
2022-07-28T06:52:13.289Z,54.17
2022-07-28T06:53:13.291Z,54.17
2022-07-28T06:54:13.614Z,53.69
2022-07-28T06:55:13.281Z,53.79
2022-07-28T06:56:13.842Z,53.59
2022-07-28T06:57:13.285Z,53.47
2022-07-28T06:58:13.285Z,53.89
2022-07-28T06:59:13.674Z,53.69
2022-07-28T07:00:13.290Z,53.86
2022-07-28T07:01:13.374Z,53.79
2022-07-28T07:02:13.286Z,53.77
2022-07-28T07:03:13.289Z,53.96
2022-07-28T07:04:13.456Z,53.38
2022-07-28T07:05:13.301Z,53.47
2022-07-28T07:06:13.299Z,53.38
2022-07-28T07:07:16.859Z,53.79
2022-07-28T07:08:13.292Z,53.57
2022-07-28T07:09:13.302Z,53.21
2022-07-28T07:10:13.309Z,53.41
2022-07-28T07:11:13.314Z,53.79
2022-07-28T07:12:13.305Z,53.59
2022-07-28T07:13:13.919Z,53.31
2022-07-28T07:14:13.837Z,53.31
2022-07-28T07:15:13.302Z,53.41
2022-07-28T07:16:13.366Z,53.31
2022-07-28T07:17:13.311Z,53.59
2022-07-28T07:18:13.306Z,53.21
2022-07-28T07:19:15.855Z,53.11
2022-07-28T07:20:13.312Z,53.11
2022-07-28T07:21:13.317Z,53.02
2022-07-28T07:22:13.315Z,52.73
2022-07-28T07:23:13.327Z,53.63
2022-07-28T07:24:13.658Z,52.46
2022-07-28T07:25:13.334Z,52.75
2022-07-28T07:26:13.312Z,52.75
2022-07-28T07:27:13.325Z,52.85
2022-07-28T07:28:13.332Z,52.95
2022-07-28T07:29:13.335Z,52.66
2022-07-28T07:30:13.329Z,52.56
2022-07-28T07:31:13.377Z,52.66
2022-07-28T07:32:13.335Z,52.85
2022-07-28T07:33:13.327Z,52.75
2022-07-28T07:34:13.652Z,52.49
2022-07-28T07:35:13.338Z,52.17
2022-07-28T07:36:13.329Z,52.29
2022-07-28T07:37:13.348Z,52.29
2022-07-28T07:38:13.334Z,51.72
2022-07-28T07:39:13.347Z,52.10
2022-07-28T07:40:13.344Z,51.90
2022-07-28T07:41:13.357Z,52.10
2022-07-28T07:42:13.346Z,52.00
2022-07-28T07:43:13.349Z,52.00
2022-07-28T07:44:13.630Z,51.90
2022-07-28T07:45:13.358Z,52.00
2022-07-28T07:46:13.407Z,52.10
2022-07-28T07:47:13.361Z,51.54
2022-07-28T07:48:13.376Z,51.52
2022-07-28T07:49:13.423Z,51.64
2022-07-28T07:50:13.379Z,51.54
2022-07-28T07:51:15.568Z,51.62
2022-07-28T07:52:13.403Z,51.35
2022-07-28T07:53:13.368Z,51.16
2022-07-28T07:54:13.591Z,51.06
2022-07-28T07:55:13.372Z,51.16
2022-07-28T07:56:13.376Z,51.35
2022-07-28T07:57:13.373Z,51.45
2022-07-28T07:58:13.379Z,51.45
2022-07-28T07:59:13.386Z,51.35
2022-07-28T08:00:28.075Z,51.37
2022-07-28T08:01:13.383Z,50.96
2022-07-28T08:02:13.479Z,51.09
2022-07-28T08:03:13.395Z,51.06
2022-07-28T08:04:13.722Z,51.18
2022-07-28T08:05:13.391Z,50.89
2022-07-28T08:06:13.395Z,50.89
2022-07-28T08:07:13.398Z,50.79
2022-07-28T08:08:13.407Z,50.99
2022-07-28T08:09:13.399Z,51.09
2022-07-28T08:10:13.401Z,51.18
2022-07-28T08:11:13.411Z,50.99
2022-07-28T08:12:13.414Z,50.99
2022-07-28T08:13:13.404Z,51.28
2022-07-28T08:14:13.724Z,50.60
2022-07-28T08:15:13.413Z,50.50
2022-07-28T08:16:13.475Z,51.18
2022-07-28T08:17:13.420Z,50.99
2022-07-28T08:18:13.420Z,50.89
2022-07-28T08:19:13.422Z,50.50
2022-07-28T08:20:13.420Z,50.60
2022-07-28T08:21:13.425Z,50.41
2022-07-28T08:22:13.429Z,50.50
2022-07-28T08:23:13.439Z,50.43
2022-07-28T08:24:13.746Z,50.53
2022-07-28T08:25:13.434Z,50.92
2022-07-28T08:26:13.433Z,50.43
2022-07-28T08:27:13.442Z,50.14
2022-07-28T08:28:13.444Z,50.62
2022-07-28T08:29:13.446Z,50.43
2022-07-28T08:30:13.453Z,50.24
2022-07-28T08:31:13.478Z,50.24
2022-07-28T08:32:13.457Z,50.24
2022-07-28T08:33:13.462Z,50.24
2022-07-28T08:34:13.461Z,50.36
2022-07-28T08:35:32.317Z,50.53
2022-07-28T08:36:13.464Z,50.07
2022-07-28T08:37:13.464Z,50.07
2022-07-28T08:38:13.466Z,49.77
2022-07-28T08:39:13.465Z,50.07
2022-07-28T08:40:13.469Z,50.16
2022-07-28T08:41:13.487Z,50.07
2022-07-28T08:42:13.470Z,49.77
2022-07-28T08:43:13.466Z,49.58
2022-07-28T08:44:13.794Z,49.77
2022-07-28T08:45:13.477Z,49.87
2022-07-28T08:46:13.534Z,49.97
2022-07-28T08:47:13.506Z,49.80
2022-07-28T08:48:13.483Z,49.22
2022-07-28T08:49:14.833Z,49.51
2022-07-28T08:50:13.483Z,49.32
2022-07-28T08:51:13.498Z,49.02
2022-07-28T08:52:13.507Z,49.12
2022-07-28T08:53:13.498Z,49.32
2022-07-28T08:54:13.721Z,49.12
2022-07-28T08:55:19.114Z,49.12
2022-07-28T08:56:13.506Z,49.02
2022-07-28T08:57:13.510Z,49.02
2022-07-28T08:58:13.523Z,49.22
2022-07-28T08:59:13.515Z,48.83
2022-07-28T09:00:13.505Z,48.73
2022-07-28T09:01:13.510Z,48.95
2022-07-28T09:02:13.617Z,49.24
2022-07-28T09:03:13.656Z,48.93
2022-07-28T09:04:13.791Z,49.24
2022-07-28T09:05:13.517Z,49.22
2022-07-28T09:06:13.522Z,49.15
2022-07-28T09:07:13.533Z,49.24
2022-07-28T09:08:13.535Z,49.34
2022-07-28T09:09:13.542Z,49.15
2022-07-28T09:10:13.545Z,49.15
2022-07-28T09:11:13.539Z,49.05
2022-07-28T09:12:13.537Z,49.05
2022-07-28T09:13:13.696Z,48.95
2022-07-28T09:14:13.905Z,48.75
2022-07-28T09:15:13.551Z,49.12
2022-07-28T09:16:13.635Z,49.12
2022-07-28T09:17:13.547Z,48.83
2022-07-28T09:18:13.553Z,49.32
2022-07-28T09:19:13.550Z,49.12
2022-07-28T09:20:13.558Z,49.12
2022-07-28T09:21:13.559Z,49.32
2022-07-28T09:22:13.571Z,49.41
2022-07-28T09:23:43.309Z,49.51
2022-07-28T09:24:13.881Z,49.90
2022-07-28T09:25:13.564Z,49.87
2022-07-28T09:26:13.578Z,49.77
2022-07-28T09:27:13.585Z,49.58
2022-07-28T09:28:13.574Z,50.16
2022-07-28T09:29:13.580Z,50.26
2022-07-28T09:30:13.589Z,50.36
2022-07-28T09:31:13.640Z,50.16
2022-07-28T09:32:13.580Z,49.77
2022-07-28T09:33:41.984Z,50.07
2022-07-28T09:34:13.801Z,49.68
2022-07-28T09:35:13.587Z,49.97
2022-07-28T09:36:13.600Z,50.56
2022-07-28T09:37:13.597Z,50.56
2022-07-28T09:38:13.602Z,50.56
2022-07-28T09:39:13.600Z,50.36
2022-07-28T09:40:13.607Z,50.46
2022-07-28T09:41:13.610Z,50.26
2022-07-28T09:42:13.607Z,50.36
2022-07-28T09:43:13.614Z,50.36
2022-07-28T09:44:13.873Z,50.43
2022-07-28T09:45:22.887Z,50.36
2022-07-28T09:46:13.717Z,50.26
2022-07-28T09:47:13.883Z,50.26
2022-07-28T09:48:13.879Z,50.24
2022-07-28T09:49:13.760Z,50.43
2022-07-28T09:50:13.620Z,50.24
2022-07-28T09:51:13.634Z,50.24
2022-07-28T09:52:13.632Z,50.14
2022-07-28T09:53:13.621Z,50.24
2022-07-28T09:54:14.054Z,50.24
2022-07-28T09:55:13.634Z,50.24
2022-07-28T09:56:13.642Z,50.24
2022-07-28T09:57:13.640Z,50.53
2022-07-28T09:58:13.646Z,50.24
2022-07-28T09:59:14.980Z,50.62
2022-07-28T10:00:13.643Z,50.62
2022-07-28T10:01:13.722Z,50.62
2022-07-28T10:02:13.836Z,50.34
2022-07-28T10:03:13.782Z,50.62
2022-07-28T10:04:13.667Z,50.62
2022-07-28T10:05:13.646Z,50.43
2022-07-28T10:06:13.658Z,50.43
2022-07-28T10:07:13.660Z,50.14
2022-07-28T10:08:13.663Z,50.24
2022-07-28T10:09:13.676Z,50.53
2022-07-28T10:10:13.689Z,50.62
2022-07-28T10:11:13.670Z,50.24
2022-07-28T10:12:13.685Z,50.43
2022-07-28T10:13:13.663Z,50.62
2022-07-28T10:14:14.133Z,50.34
2022-07-28T10:15:13.683Z,50.62
2022-07-28T10:16:13.719Z,50.34
2022-07-28T10:17:13.675Z,50.62
2022-07-28T10:18:13.686Z,50.53
2022-07-28T10:19:13.700Z,50.72
2022-07-28T10:20:13.696Z,50.43
2022-07-28T10:21:13.685Z,50.43
2022-07-28T10:22:13.690Z,50.53
2022-07-28T10:23:13.694Z,50.43
2022-07-28T10:24:14.041Z,50.53
2022-07-28T10:25:13.694Z,50.43
2022-07-28T10:26:13.693Z,50.62
2022-07-28T10:27:13.698Z,50.62
2022-07-28T10:28:13.695Z,50.62
2022-07-28T10:29:13.696Z,50.62
2022-07-28T10:30:13.694Z,50.62
2022-07-28T10:31:13.742Z,50.43
2022-07-28T10:32:13.719Z,50.43
2022-07-28T10:33:13.705Z,50.43
2022-07-28T10:34:16.300Z,50.41
2022-07-28T10:35:13.701Z,50.72
2022-07-28T10:36:13.711Z,50.53
2022-07-28T10:37:13.714Z,50.53
2022-07-28T10:38:14.102Z,50.50
2022-07-28T10:39:13.714Z,50.53
2022-07-28T10:40:13.720Z,50.34
2022-07-28T10:41:13.718Z,50.50
2022-07-28T10:42:13.723Z,50.31
2022-07-28T10:43:13.738Z,50.60
2022-07-28T10:44:14.152Z,50.31
2022-07-28T10:45:13.734Z,50.41
2022-07-28T10:46:16.238Z,50.50
2022-07-28T10:47:18.312Z,50.31
2022-07-28T10:48:13.724Z,50.50
2022-07-28T10:49:13.779Z,50.60
2022-07-28T10:50:13.737Z,50.70
2022-07-28T10:51:13.743Z,50.50
2022-07-28T10:52:37.050Z,50.50
2022-07-28T10:53:13.737Z,50.70
2022-07-28T10:54:17.497Z,50.41
2022-07-28T10:55:13.734Z,50.50
2022-07-28T10:56:13.753Z,50.41
2022-07-28T10:57:13.745Z,50.50
2022-07-28T10:58:13.746Z,50.31
2022-07-28T10:59:13.747Z,50.79
2022-07-28T11:00:20.361Z,50.89
2022-07-28T11:01:32.418Z,50.41
2022-07-28T11:02:13.853Z,50.79
2022-07-28T11:03:14.382Z,50.79
2022-07-28T11:04:14.040Z,50.79
2022-07-28T11:05:13.761Z,50.89
2022-07-28T11:06:13.758Z,51.09
2022-07-28T11:07:13.765Z,50.70
2022-07-28T11:08:13.772Z,50.99
2022-07-28T11:09:13.765Z,51.18
2022-07-28T11:10:13.835Z,50.99
2022-07-28T11:11:13.766Z,51.09
2022-07-28T11:12:13.767Z,51.09
2022-07-28T11:13:14.298Z,50.70
2022-07-28T11:14:14.043Z,51.09
2022-07-28T11:15:15.719Z,50.79
2022-07-28T11:16:13.861Z,50.79
2022-07-28T11:17:13.829Z,51.18
2022-07-28T11:18:13.770Z,51.18
2022-07-28T11:19:36.655Z,51.18
2022-07-28T11:20:24.862Z,50.60
2022-07-28T11:21:16.548Z,50.60
2022-07-28T11:22:13.788Z,50.70
2022-07-28T11:23:13.784Z,50.89
2022-07-28T11:24:17.865Z,50.79
2022-07-28T11:25:19.233Z,50.60
2022-07-28T11:26:13.794Z,50.89
2022-07-28T11:27:13.795Z,50.50
2022-07-28T11:28:13.792Z,50.89
2022-07-28T11:29:13.801Z,50.99
2022-07-28T11:30:13.816Z,50.50
2022-07-28T11:31:13.912Z,50.89
2022-07-28T11:32:13.795Z,50.99
2022-07-28T11:33:13.805Z,50.50
2022-07-28T11:34:14.237Z,50.60
2022-07-28T11:35:13.805Z,50.99
2022-07-28T11:36:13.815Z,50.99
2022-07-28T11:37:15.068Z,50.99
2022-07-28T11:38:13.818Z,50.60
2022-07-28T11:39:13.825Z,50.99
2022-07-28T11:40:13.805Z,51.09
2022-07-28T11:41:13.812Z,51.28
2022-07-28T11:42:13.813Z,51.09
2022-07-28T11:43:13.819Z,51.28
2022-07-28T11:44:14.303Z,51.28
2022-07-28T11:45:13.826Z,51.18
2022-07-28T11:46:13.880Z,51.18
2022-07-28T11:47:13.817Z,51.18
2022-07-28T11:48:13.859Z,51.28
2022-07-28T11:49:14.773Z,50.89
2022-07-28T11:50:13.826Z,50.89
2022-07-28T11:51:13.860Z,50.79
2022-07-28T11:52:13.962Z,50.99
2022-07-28T11:53:13.834Z,51.09
2022-07-28T11:54:14.256Z,50.99
2022-07-28T11:55:13.857Z,51.18
2022-07-28T11:56:13.858Z,50.99
2022-07-28T11:57:13.962Z,50.99
2022-07-28T11:58:13.843Z,51.18
2022-07-28T11:59:13.954Z,50.99
2022-07-28T12:00:13.853Z,50.89
2022-07-28T12:01:18.061Z,50.99
2022-07-28T12:02:13.922Z,50.99
2022-07-28T12:03:13.843Z,50.79
2022-07-28T12:04:14.259Z,50.79
2022-07-28T12:05:13.986Z,50.89
2022-07-28T12:06:13.853Z,50.89
2022-07-28T12:07:13.869Z,50.89
2022-07-28T12:08:13.859Z,50.89
2022-07-28T12:09:13.902Z,50.89
2022-07-28T12:10:25.998Z,50.89
2022-07-28T12:11:13.856Z,50.89
2022-07-28T12:12:13.857Z,50.99
2022-07-28T12:13:13.867Z,50.99
2022-07-28T12:14:14.251Z,50.99
2022-07-28T12:15:13.877Z,51.09
2022-07-28T12:16:13.944Z,50.99
2022-07-28T12:17:13.929Z,50.89
2022-07-28T12:18:14.394Z,50.99
2022-07-28T12:19:13.953Z,50.99
2022-07-28T12:20:14.167Z,50.99
2022-07-28T12:21:13.866Z,50.89
2022-07-28T12:22:15.899Z,51.18
2022-07-28T12:23:13.882Z,50.99
2022-07-28T12:24:14.055Z,50.87
2022-07-28T12:25:14.063Z,51.09
2022-07-28T12:26:13.890Z,50.89
2022-07-28T12:27:15.199Z,51.09
2022-07-28T12:28:13.883Z,51.06
2022-07-28T12:29:13.953Z,51.18
2022-07-28T12:30:13.899Z,50.99
2022-07-28T12:31:13.894Z,50.99
2022-07-28T12:32:13.947Z,51.18
2022-07-28T12:33:13.889Z,51.18
2022-07-28T12:34:14.154Z,51.18
2022-07-28T12:35:13.913Z,51.09
2022-07-28T12:36:13.893Z,51.18
2022-07-28T12:37:13.899Z,51.18
2022-07-28T12:38:13.901Z,51.16
2022-07-28T12:39:13.902Z,51.16
2022-07-28T12:40:13.906Z,50.87
2022-07-28T12:41:13.901Z,51.06
2022-07-28T12:42:13.906Z,51.18
2022-07-28T12:43:13.913Z,50.99
2022-07-28T12:44:14.304Z,50.99
2022-07-28T12:45:13.905Z,50.99
2022-07-28T12:46:13.975Z,50.99
2022-07-28T12:47:13.906Z,50.96
2022-07-28T12:48:13.909Z,51.16
2022-07-28T12:49:14.014Z,50.99
2022-07-28T12:50:13.920Z,50.99
2022-07-28T12:51:13.934Z,50.99
2022-07-28T12:52:13.922Z,50.99
2022-07-28T12:53:13.947Z,50.87
2022-07-28T12:54:14.346Z,50.99